Aérodrome :
LOGIN :

S'inscrire | Disclaimer

   EN    FR    IT 

 










Légende :    VFR   VFR Marginal   IFR   IFR Intensif   IFR Très Intensif
Visi : 
Plafond : 
>= 8 km
>= 3000ft
5 à 8 km
1000 à 3000 ft
1500m à 5 km
500 à 1000 ft
800 à 1500m
200 à 500 ft
< 800m
< 200 ft
Symboles :   Orages  Brouillard  Fortes neiges  Fortes précipitations  Vent > 20 kt
SIGMETs :   Divers  Orages  Givrage  Turbulence  Onde Orograph.  Cendres Volcan.






- Altitude de l'aérodrome : 359 ft
- Code IATA : BVA


LFOB - Beauvais

DERNIER METAR :
  • 091030Z AUTO 24010KT 9999 FEW038 SCT045 BKN060 06/02 Q1006 NOSIG

METARs EXPIRÉS :
  • 091000Z AUTO 25012KT 220V280 9999 FEW042 BKN049 BKN058 05/02 Q1007 NOSIG
  • 090930Z AUTO 24010KT 9999 SCT040 BKN049 BKN056 05/02 Q1006 NOSIG
  • 090900Z AUTO 23009KT 9999 SCT035 BKN041 BKN048 04/02 Q1006 NOSIG
  • 090830Z AUTO 26006KT 230V300 9999 SCT035 SCT043 BKN058 03/01 Q1006 NOSIG
  • 090800Z AUTO 24008KT 9999 BKN037/// OVC150/// ///TCU 03/01 Q1005 BECMG SCT030

TAF TAF LFOB
Valide du 09 à 06h jusqu'au 10 à 06h UTC


090500Z 0906/1006 23010KT 9999 SCT030
BECMG 0917/0919 17015KT OVC007
TEMPO 0919/1004 3000 RA OVC003
FM100400 30015KT 9999 BKN020
TEMPO 1004/1006 30020G33KT 3000 SHRA BKN020TCU
ATIS : +33 3 44 11 49 28



MET'MAP, la Météo Aéronautique d'un coup d'oeil ! - Copyright ORBIFLY Décembre 2007 - Disclaimer

ORBIFLY MET'MAP TEAM :

Programmation & Développement : Alexandra Zaïnal
Sur une idée originale de : Baudouin d'Aumeries
Assistance à la programmation : Marc-Olivier Méhu
Soutien technique & logistique : Manuel Goepfert

Contact : metmap@orbifly.com




SOURCES & CREDITS :

   NOAA